Inglewood, Florida
Current Conditions -  °F | °C
As of 7:53 AM on Thursday 23 Oct 2014 (Local Time) from KPGD Reporting Station
Scattered Clouds Scattered Clouds  
Wind Chill: 66°   Ceiling: Unl
Heat Index: 66°   Visibility: 10mi
Dew Point: 61°   Wind: 8mph
Humidity: 84%   Direction: 40°NE
Pressure: 29.97"   Gusts: NA
Location:  26.9253°N, 82.3009°W
Report Text: KPGD 231153Z 04007KT 10SM SCT035 19/16 A2997 RMK AO2 SLP148 T01890161 10211 20189 53011
Loading
Personal Weather Stations






























Interactive Weather Map
Tropical Storm Tracking
New forecast layout! Learn more

10-Day Weather Forecast

Advertisements
Track Severe Weather on mobile